Chalk, Texas
Current Conditions -  °F | °C
As of 8:53 AM on Thursday 23 Oct 2014 (Local Time) from KCDS Reporting Station
Haze Haze  
Wind Chill: 58°   Ceiling: Unl
Heat Index: 58°   Visibility: 3mi
Dew Point: 57°   Wind: 3mph
Humidity: 97%   Direction: 200°SSW
Pressure: 30.13"   Gusts: NA
Location:  33.87°N, 100.22°W
Report Text: KCDS 231353Z AUTO 20003KT 3SM BR CLR 14/14 A3013 RMK AO2 SLP189 T01440139
Loading
Personal Weather Stations






























Interactive Weather Map
Tropical Storm Tracking
New forecast layout! Learn more

10-Day Weather Forecast

Advertisements
Track Severe Weather on mobile